MZN809 KSFO-KEWR
Flight info
| Callsign | MZN809 |
|---|---|
| Flight time | N/A |
| Altitude | FL350 |
| Route | TRUKN2 ORRCA Q120 GALLI BAM J94 LCU J94 ONL FOD DBQ J94 OBK J584 SLT FQM3 |
| Aircraft | B763/H-SABDE1E2FGIJ1J3J4J5J6J7M2M3P1P2RTUVW/NACEHB1B2U1V1V2D1G1 |
Departure
| Time | 2026-05-05 02:43 |
|---|---|
| Airport | San Francisco International Airport (KSFO) |
Arrival
| Time | N/A |
|---|---|
| Airport | Newark Liberty International Airport (KEWR) |
| Time | Latitude | Longitude | Altitude | Speed | Heading |
|---|---|---|---|---|---|
| 2026-05-05 02:15 | 37.63724 | -122.38834 | 27 ft | 0 kts | 83° |
| 2026-05-05 02:24 | 37.63723 | -122.38849 | 27 ft | 0 kts | 83° |
| 2026-05-05 02:24 | 37.63721 | -122.38866 | 27 ft | 0 kts | 83° |
| 2026-05-05 02:24 | 37.63720 | -122.38883 | 27 ft | 0 kts | 83° |
| 2026-05-05 02:25 | 37.63718 | -122.38900 | 27 ft | 0 kts | 83° |
| 2026-05-05 02:25 | 37.63719 | -122.38917 | 27 ft | 0 kts | 109° |
| 2026-05-05 02:25 | 37.63727 | -122.38929 | 27 ft | 0 kts | 153° |
| 2026-05-05 02:25 | 37.63734 | -122.38933 | 27 ft | 0 kts | 161° |
| 2026-05-05 02:26 | 37.63733 | -122.38932 | 27 ft | 0 kts | 161° |
| 2026-05-05 02:27 | 37.63722 | -122.38923 | 27 ft | 4 kts | 144° |
| 2026-05-05 02:27 | 37.63701 | -122.38894 | 27 ft | 6 kts | 136° |
| 2026-05-05 02:28 | 37.63659 | -122.38864 | 27 ft | 8 kts | 156° |
| 2026-05-05 02:28 | 37.63598 | -122.38829 | 27 ft | 10 kts | 154° |
| 2026-05-05 02:28 | 37.63528 | -122.38825 | 27 ft | 9 kts | 203° |
| 2026-05-05 02:28 | 37.63485 | -122.38870 | 27 ft | 10 kts | 222° |
| 2026-05-05 02:29 | 37.63424 | -122.38935 | 27 ft | 12 kts | 219° |
| 2026-05-05 02:29 | 37.63362 | -122.39002 | 27 ft | 11 kts | 220° |
| 2026-05-05 02:29 | 37.63300 | -122.39068 | 27 ft | 13 kts | 218° |
| 2026-05-05 02:29 | 37.63210 | -122.39078 | 27 ft | 15 kts | 166° |
| 2026-05-05 02:30 | 37.63128 | -122.39110 | 27 ft | 9 kts | 238° |
| 2026-05-05 02:30 | 37.63083 | -122.39170 | 27 ft | 10 kts | 193° |
| 2026-05-05 02:30 | 37.63056 | -122.39167 | 27 ft | 2 kts | 169° |
| 2026-05-05 02:30 | 37.63029 | -122.39163 | 27 ft | 6 kts | 165° |
| 2026-05-05 02:31 | 37.62977 | -122.39141 | 27 ft | 10 kts | 159° |
| 2026-05-05 02:31 | 37.62917 | -122.39084 | 27 ft | 12 kts | 120° |
| 2026-05-05 02:31 | 37.62872 | -122.38978 | 27 ft | 12 kts | 117° |
| 2026-05-05 02:31 | 37.62832 | -122.38879 | 27 ft | 12 kts | 118° |
| 2026-05-05 02:32 | 37.62788 | -122.38771 | 27 ft | 15 kts | 117° |
| 2026-05-05 02:32 | 37.62736 | -122.38648 | 27 ft | 18 kts | 118° |
| 2026-05-05 02:32 | 37.62676 | -122.38506 | 27 ft | 18 kts | 118° |
| 2026-05-05 02:32 | 37.62615 | -122.38362 | 27 ft | 19 kts | 118° |
| 2026-05-05 02:33 | 37.62564 | -122.38238 | 27 ft | 14 kts | 117° |
| 2026-05-05 02:33 | 37.62517 | -122.38125 | 27 ft | 15 kts | 118° |
| 2026-05-05 02:33 | 37.62465 | -122.38000 | 27 ft | 15 kts | 118° |
| 2026-05-05 02:33 | 37.62411 | -122.37871 | 27 ft | 18 kts | 118° |
| 2026-05-05 02:34 | 37.62350 | -122.37728 | 27 ft | 18 kts | 118° |
| 2026-05-05 02:34 | 37.62298 | -122.37606 | 27 ft | 15 kts | 118° |
| 2026-05-05 02:34 | 37.62251 | -122.37496 | 27 ft | 14 kts | 118° |
| 2026-05-05 02:34 | 37.62196 | -122.37367 | 27 ft | 19 kts | 118° |
| 2026-05-05 02:35 | 37.62134 | -122.37221 | 27 ft | 19 kts | 117° |
| 2026-05-05 02:35 | 37.62074 | -122.37074 | 27 ft | 18 kts | 117° |
| 2026-05-05 02:35 | 37.62011 | -122.36924 | 27 ft | 19 kts | 117° |
| 2026-05-05 02:35 | 37.61955 | -122.36791 | 27 ft | 17 kts | 118° |
| 2026-05-05 02:36 | 37.61903 | -122.36667 | 27 ft | 15 kts | 118° |
| 2026-05-05 02:36 | 37.61849 | -122.36540 | 27 ft | 17 kts | 118° |
| 2026-05-05 02:36 | 37.61793 | -122.36406 | 27 ft | 17 kts | 118° |
| 2026-05-05 02:36 | 37.61735 | -122.36271 | 27 ft | 19 kts | 118° |
| 2026-05-05 02:37 | 37.61674 | -122.36126 | 27 ft | 17 kts | 117° |
| 2026-05-05 02:37 | 37.61624 | -122.36006 | 27 ft | 14 kts | 118° |
| 2026-05-05 02:37 | 37.61573 | -122.35887 | 27 ft | 15 kts | 118° |
| 2026-05-05 02:37 | 37.61526 | -122.35782 | 27 ft | 12 kts | 131° |
| 2026-05-05 02:38 | 37.61486 | -122.35753 | 27 ft | 0 kts | 171° |
| 2026-05-05 02:38 | 37.61485 | -122.35753 | 27 ft | 0 kts | 171° |
| 2026-05-05 02:39 | 37.61484 | -122.35753 | 27 ft | 0 kts | 171° |
| 2026-05-05 02:40 | 37.61484 | -122.35752 | 27 ft | 0 kts | 171° |
| 2026-05-05 02:40 | 37.61483 | -122.35752 | 27 ft | 0 kts | 171° |
| 2026-05-05 02:41 | 37.61482 | -122.35752 | 27 ft | 0 kts | 171° |
| 2026-05-05 02:42 | 37.61479 | -122.35752 | 27 ft | 2 kts | 171° |
| 2026-05-05 02:42 | 37.61447 | -122.35755 | 27 ft | 7 kts | 193° |
| 2026-05-05 02:42 | 37.61407 | -122.35809 | 27 ft | 10 kts | 256° |
| 2026-05-05 02:42 | 37.61415 | -122.35862 | 27 ft | 0 kts | 298° |
| 2026-05-05 02:43 | 37.61484 | -122.36030 | 27 ft | 62 kts | 297° |
| 2026-05-05 02:43 | 37.61843 | -122.36882 | 28 ft | 155 kts | 297° |
| 2026-05-05 02:43 | 37.62446 | -122.38315 | 381 ft | 201 kts | 297° |
| 2026-05-05 02:43 | 37.63118 | -122.39910 | 1065 ft | 213 kts | 297° |
| 2026-05-05 02:44 | 37.63824 | -122.41588 | 1536 ft | 219 kts | 297° |
| 2026-05-05 02:44 | 37.64466 | -122.43107 | 1964 ft | 217 kts | 297° |
| 2026-05-05 02:44 | 37.65231 | -122.44764 | 2532 ft | 222 kts | 305° |
| 2026-05-05 02:44 | 37.66462 | -122.45949 | 3050 ft | 232 kts | 335° |
| 2026-05-05 02:45 | 37.68082 | -122.46177 | 3641 ft | 240 kts | 6° |
| 2026-05-05 02:45 | 37.69616 | -122.45333 | 4228 ft | 246 kts | 36° |
| 2026-05-05 02:45 | 37.70637 | -122.43632 | 4808 ft | 247 kts | 66° |
| 2026-05-05 02:45 | 37.70874 | -122.41508 | 5392 ft | 247 kts | 95° |
| 2026-05-05 02:46 | 37.70394 | -122.39404 | 6013 ft | 253 kts | 112° |
| 2026-05-05 02:46 | 37.69690 | -122.37343 | 6609 ft | 258 kts | 114° |
| 2026-05-05 02:46 | 37.68728 | -122.35441 | 7138 ft | 261 kts | 133° |
| 2026-05-05 02:46 | 37.67181 | -122.34258 | 7743 ft | 265 kts | 160° |
| 2026-05-05 02:47 | 37.65334 | -122.33973 | 8348 ft | 271 kts | 177° |
| 2026-05-05 02:47 | 37.63478 | -122.33589 | 8925 ft | 273 kts | 160° |
| 2026-05-05 02:47 | 37.61903 | -122.32274 | 9504 ft | 275 kts | 134° |
| 2026-05-05 02:47 | 37.60949 | -122.30201 | 10082 ft | 277 kts | 107° |
| 2026-05-05 02:48 | 37.60816 | -122.27795 | 10660 ft | 279 kts | 82° |
| 2026-05-05 02:48 | 37.61498 | -122.25495 | 11233 ft | 289 kts | 59° |
| 2026-05-05 02:48 | 37.62819 | -122.23530 | 11810 ft | 299 kts | 44° |
| 2026-05-05 02:48 | 37.64428 | -122.21817 | 12388 ft | 305 kts | 37° |
| 2026-05-05 02:49 | 37.66160 | -122.20239 | 12964 ft | 309 kts | 34° |
| 2026-05-05 02:49 | 37.67984 | -122.18683 | 13542 ft | 324 kts | 33° |
| 2026-05-05 02:49 | 37.69900 | -122.17074 | 14119 ft | 339 kts | 33° |
| 2026-05-05 02:49 | 37.71905 | -122.15404 | 14694 ft | 353 kts | 33° |
| 2026-05-05 02:50 | 37.73996 | -122.13701 | 15270 ft | 364 kts | 32° |
| 2026-05-05 02:50 | 37.76164 | -122.11957 | 15847 ft | 375 kts | 33° |
| 2026-05-05 02:50 | 37.78397 | -122.10165 | 16425 ft | 385 kts | 33° |
| 2026-05-05 02:50 | 37.80649 | -122.08351 | 17000 ft | 387 kts | 33° |
| 2026-05-05 02:51 | 37.82942 | -122.06498 | 17639 ft | 394 kts | 34° |
| 2026-05-05 02:51 | 37.85243 | -122.04636 | 18806 ft | 389 kts | 34° |
| 2026-05-05 02:51 | 37.87500 | -122.02815 | 20146 ft | 381 kts | 35° |
| 2026-05-05 02:51 | 37.89691 | -122.00990 | 21338 ft | 376 kts | 36° |
| 2026-05-05 02:52 | 37.91856 | -121.99148 | 22343 ft | 375 kts | 36° |
| 2026-05-05 02:52 | 37.94025 | -121.97310 | 23236 ft | 377 kts | 36° |
| 2026-05-05 02:52 | 37.96220 | -121.95455 | 24058 ft | 380 kts | 36° |
| 2026-05-05 02:52 | 37.98425 | -121.93593 | 24795 ft | 384 kts | 36° |
| 2026-05-05 02:53 | 38.00664 | -121.91705 | 25476 ft | 389 kts | 36° |
| 2026-05-05 02:53 | 38.02929 | -121.89797 | 26138 ft | 394 kts | 35° |
| 2026-05-05 02:53 | 38.05227 | -121.87864 | 26799 ft | 398 kts | 35° |
| 2026-05-05 02:53 | 38.07542 | -121.85918 | 27447 ft | 402 kts | 35° |
| 2026-05-05 02:54 | 38.09887 | -121.83950 | 28081 ft | 406 kts | 35° |
| 2026-05-05 02:54 | 38.12271 | -121.81960 | 28517 ft | 416 kts | 39° |
| 2026-05-05 02:54 | 38.14722 | -121.79910 | 28707 ft | 430 kts | 40° |
| 2026-05-05 02:54 | 38.17229 | -121.77817 | 29335 ft | 430 kts | 36° |
| 2026-05-05 02:55 | 38.19725 | -121.75789 | 30428 ft | 422 kts | 34° |
| 2026-05-05 02:55 | 38.22193 | -121.73787 | 31034 ft | 424 kts | 35° |
| 2026-05-05 02:55 | 38.24693 | -121.71733 | 31317 ft | 433 kts | 37° |
| 2026-05-05 02:55 | 38.27242 | -121.69611 | 31496 ft | 443 kts | 37° |
| 2026-05-05 02:56 | 38.29824 | -121.67433 | 31734 ft | 451 kts | 37° |
| 2026-05-05 02:56 | 38.32473 | -121.65189 | 31978 ft | 460 kts | 37° |
| 2026-05-05 02:56 | 38.35149 | -121.62923 | 32257 ft | 466 kts | 37° |
| 2026-05-05 02:56 | 38.37864 | -121.60631 | 32558 ft | 471 kts | 36° |
| 2026-05-05 02:57 | 38.40616 | -121.58312 | 32853 ft | 477 kts | 38° |
| 2026-05-05 02:57 | 38.43395 | -121.55934 | 33044 ft | 485 kts | 38° |
| 2026-05-05 02:57 | 38.45884 | -121.53144 | 33900 ft | 468 kts | 50° |
| 2026-05-05 02:57 | 38.47957 | -121.49972 | 34561 ft | 465 kts | 54° |
| 2026-05-05 02:58 | 38.49798 | -121.46576 | 34795 ft | 470 kts | 59° |
| 2026-05-05 02:58 | 38.51592 | -121.43079 | 34924 ft | 465 kts | 58° |
| 2026-05-05 02:58 | 38.53397 | -121.39666 | 34966 ft | 465 kts | 58° |
| 2026-05-05 02:59 | 38.57147 | -121.32847 | 34978 ft | 475 kts | 56° |
| 2026-05-05 02:59 | 38.61049 | -121.25991 | 34980 ft | 477 kts | 56° |
| 2026-05-05 03:00 | 38.65004 | -121.19156 | 34979 ft | 484 kts | 56° |
| 2026-05-05 03:00 | 38.68377 | -121.13361 | 34977 ft | 487 kts | 56° |
| 2026-05-05 03:01 | 38.72402 | -121.06381 | 34979 ft | 497 kts | 57° |
| 2026-05-05 03:01 | 38.76468 | -120.99080 | 34979 ft | 494 kts | 57° |
| 2026-05-05 03:01 | 38.78421 | -120.95583 | 34981 ft | 477 kts | 56° |
| 2026-05-05 03:02 | 38.80348 | -120.92152 | 34984 ft | 470 kts | 56° |
| 2026-05-05 03:02 | 38.84197 | -120.85332 | 34986 ft | 475 kts | 56° |
| 2026-05-05 03:03 | 38.88121 | -120.78482 | 34982 ft | 478 kts | 55° |
| 2026-05-05 03:03 | 38.92047 | -120.71609 | 34975 ft | 478 kts | 56° |
| 2026-05-05 03:04 | 38.95924 | -120.64567 | 34976 ft | 488 kts | 58° |
| 2026-05-05 03:04 | 38.97908 | -120.60967 | 34975 ft | 499 kts | 56° |
| 2026-05-05 03:04 | 38.99899 | -120.57381 | 34974 ft | 486 kts | 57° |
| 2026-05-05 03:05 | 39.03795 | -120.50393 | 34956 ft | 482 kts | 56° |
| 2026-05-05 03:05 | 39.07721 | -120.43392 | 34951 ft | 485 kts | 56° |
| 2026-05-05 03:06 | 39.11695 | -120.36355 | 34970 ft | 486 kts | 56° |
| 2026-05-05 03:06 | 39.15662 | -120.29308 | 34980 ft | 487 kts | 57° |
| 2026-05-05 03:07 | 39.19540 | -120.22174 | 34982 ft | 489 kts | 58° |
| 2026-05-05 03:07 | 39.23506 | -120.14906 | 34987 ft | 493 kts | 58° |
| 2026-05-05 03:08 | 39.27454 | -120.07806 | 34991 ft | 483 kts | 56° |
| 2026-05-05 03:08 | 39.31404 | -120.00776 | 34986 ft | 485 kts | 57° |
| 2026-05-05 03:09 | 39.35280 | -119.93629 | 34953 ft | 485 kts | 58° |
| 2026-05-05 03:09 | 39.39113 | -119.86491 | 34932 ft | 484 kts | 57° |
| 2026-05-05 03:10 | 39.42965 | -119.79390 | 34915 ft | 483 kts | 58° |
| 2026-05-05 03:10 | 39.46856 | -119.72207 | 34904 ft | 481 kts | 58° |
| 2026-05-05 03:11 | 39.50681 | -119.65080 | 34901 ft | 485 kts | 58° |
| 2026-05-05 03:11 | 39.54621 | -119.57983 | 34896 ft | 487 kts | 57° |
| 2026-05-05 03:12 | 39.58564 | -119.50819 | 34891 ft | 491 kts | 57° |
| 2026-05-05 03:12 | 39.62513 | -119.43636 | 34891 ft | 483 kts | 58° |
| 2026-05-05 03:13 | 39.66367 | -119.36500 | 34889 ft | 486 kts | 59° |
| 2026-05-05 03:13 | 39.70195 | -119.29245 | 34889 ft | 487 kts | 59° |
| 2026-05-05 03:14 | 39.74022 | -119.21979 | 34886 ft | 487 kts | 59° |
| 2026-05-05 03:14 | 39.77855 | -119.14778 | 34887 ft | 489 kts | 57° |
| 2026-05-05 03:15 | 39.81763 | -119.07507 | 34887 ft | 489 kts | 57° |
| 2026-05-05 03:15 | 39.85697 | -119.00289 | 34886 ft | 489 kts | 57° |
| 2026-05-05 03:16 | 39.89622 | -118.93061 | 34886 ft | 489 kts | 57° |
| 2026-05-05 03:16 | 39.93469 | -118.85789 | 34885 ft | 488 kts | 58° |
| 2026-05-05 03:17 | 39.97262 | -118.78465 | 34885 ft | 488 kts | 58° |
| 2026-05-05 03:17 | 40.01094 | -118.71159 | 34884 ft | 488 kts | 58° |
| 2026-05-05 03:18 | 40.04996 | -118.63843 | 34884 ft | 493 kts | 57° |
| 2026-05-05 03:18 | 40.08925 | -118.56524 | 34882 ft | 493 kts | 58° |
| 2026-05-05 03:19 | 40.14668 | -118.45395 | 34880 ft | 493 kts | 59° |
| 2026-05-05 03:19 | 40.18518 | -118.38005 | 34886 ft | 492 kts | 58° |
| 2026-05-05 03:20 | 40.22412 | -118.30658 | 34893 ft | 492 kts | 58° |
| 2026-05-05 03:20 | 40.26283 | -118.23292 | 34899 ft | 492 kts | 58° |
| 2026-05-05 03:21 | 40.30050 | -118.15872 | 34910 ft | 488 kts | 59° |
| 2026-05-05 03:21 | 40.33154 | -118.08062 | 34919 ft | 483 kts | 73° |
| 2026-05-05 03:22 | 40.34882 | -117.99565 | 34938 ft | 481 kts | 80° |
| 2026-05-05 03:22 | 40.36351 | -117.91030 | 34957 ft | 481 kts | 79° |
| 2026-05-05 03:23 | 40.38002 | -117.82522 | 34968 ft | 481 kts | 78° |
| 2026-05-05 03:23 | 40.39707 | -117.74047 | 34976 ft | 482 kts | 78° |
| 2026-05-05 03:24 | 40.41386 | -117.65535 | 34990 ft | 484 kts | 78° |
| 2026-05-05 03:24 | 40.43128 | -117.57000 | 35001 ft | 485 kts | 77° |
| 2026-05-05 03:25 | 40.44897 | -117.48489 | 35009 ft | 484 kts | 78° |
| 2026-05-05 03:25 | 40.46624 | -117.39936 | 35013 ft | 484 kts | 78° |
| 2026-05-05 03:26 | 40.48313 | -117.31401 | 35013 ft | 484 kts | 78° |
| 2026-05-05 03:26 | 40.49985 | -117.22837 | 35013 ft | 484 kts | 78° |
| 2026-05-05 03:27 | 40.51673 | -117.14316 | 35013 ft | 481 kts | 78° |
| 2026-05-05 03:27 | 40.53356 | -117.05809 | 35012 ft | 482 kts | 78° |
| 2026-05-05 03:28 | 40.55051 | -116.97306 | 35010 ft | 482 kts | 78° |
| 2026-05-05 03:28 | 40.56777 | -116.88772 | 34991 ft | 483 kts | 78° |
| 2026-05-05 03:29 | 40.58430 | -116.80240 | 34975 ft | 481 kts | 79° |
| 2026-05-05 03:29 | 40.60019 | -116.71691 | 34965 ft | 482 kts | 79° |
| 2026-05-05 03:30 | 40.61658 | -116.63099 | 34923 ft | 485 kts | 79° |
| 2026-05-05 03:30 | 40.63270 | -116.54504 | 34945 ft | 484 kts | 79° |
| 2026-05-05 03:31 | 40.64850 | -116.45881 | 34959 ft | 486 kts | 79° |
| 2026-05-05 03:31 | 40.66527 | -116.37256 | 34934 ft | 486 kts | 78° |
| 2026-05-05 03:32 | 40.68216 | -116.28664 | 34930 ft | 485 kts | 79° |
| 2026-05-05 03:32 | 40.69852 | -116.20046 | 34911 ft | 485 kts | 79° |
| 2026-05-05 03:33 | 40.71142 | -116.11412 | 34872 ft | 481 kts | 81° |
| 2026-05-05 03:33 | 40.72772 | -116.02870 | 34849 ft | 483 kts | 77° |
| 2026-05-05 03:34 | 40.74963 | -115.94472 | 34831 ft | 486 kts | 72° |
| 2026-05-05 03:34 | 40.77495 | -115.86239 | 34824 ft | 484 kts | 71° |
| 2026-05-05 03:35 | 40.80055 | -115.78025 | 34822 ft | 483 kts | 71° |
| 2026-05-05 03:35 | 40.82593 | -115.69830 | 34824 ft | 483 kts | 72° |
| 2026-05-05 03:36 | 40.85088 | -115.61586 | 34823 ft | 484 kts | 72° |
| 2026-05-05 03:36 | 40.87536 | -115.53314 | 34823 ft | 483 kts | 73° |
| 2026-05-05 03:37 | 40.89938 | -115.45037 | 34823 ft | 483 kts | 73° |
| 2026-05-05 03:37 | 40.92371 | -115.36740 | 34822 ft | 484 kts | 73° |
| 2026-05-05 03:38 | 40.94842 | -115.28476 | 34823 ft | 484 kts | 72° |
| 2026-05-05 03:38 | 40.97347 | -115.20220 | 34821 ft | 483 kts | 72° |
| 2026-05-05 03:39 | 40.99794 | -115.11964 | 34822 ft | 482 kts | 73° |
| 2026-05-05 03:39 | 41.02159 | -115.03665 | 34820 ft | 482 kts | 74° |
| 2026-05-05 03:40 | 41.04515 | -114.95358 | 34819 ft | 482 kts | 74° |
| 2026-05-05 03:40 | 41.06890 | -114.87067 | 34817 ft | 482 kts | 73° |
| 2026-05-05 03:41 | 41.09305 | -114.78796 | 34813 ft | 481 kts | 73° |
| 2026-05-05 03:41 | 41.11745 | -114.70567 | 34812 ft | 481 kts | 73° |
| 2026-05-05 03:42 | 41.14213 | -114.62252 | 34811 ft | 486 kts | 73° |
| 2026-05-05 03:42 | 41.16659 | -114.53766 | 34802 ft | 502 kts | 73° |
| 2026-05-05 03:43 | 41.17872 | -114.49391 | 34797 ft | 513 kts | 72° |
| 2026-05-05 03:43 | 41.19123 | -114.44906 | 34796 ft | 523 kts | 71° |
| 2026-05-05 03:43 | 41.21708 | -114.35775 | 34793 ft | 527 kts | 67° |
| 2026-05-05 03:44 | 41.24288 | -114.26746 | 34776 ft | 516 kts | 66° |
| 2026-05-05 03:44 | 41.25535 | -114.22333 | 34774 ft | 504 kts | 65° |
| 2026-05-05 03:44 | 41.26749 | -114.18017 | 34774 ft | 494 kts | 65° |
| 2026-05-05 03:45 | 41.29114 | -114.09484 | 34769 ft | 495 kts | 65° |
| 2026-05-05 03:45 | 41.31509 | -114.00890 | 34765 ft | 496 kts | 65° |
| 2026-05-05 03:46 | 41.33947 | -113.92312 | 34758 ft | 496 kts | 65° |
| 2026-05-05 03:46 | 41.36349 | -113.83697 | 34750 ft | 499 kts | 68° |
| 2026-05-05 03:47 | 41.37952 | -113.74678 | 34746 ft | 503 kts | 75° |
| 2026-05-05 03:47 | 41.39140 | -113.65458 | 34746 ft | 513 kts | 77° |
| 2026-05-05 03:48 | 41.39740 | -113.60719 | 34747 ft | 524 kts | 78° |
| 2026-05-05 03:48 | 41.40346 | -113.55905 | 34747 ft | 534 kts | 80° |
| 2026-05-05 03:48 | 41.41580 | -113.46152 | 34747 ft | 529 kts | 83° |
| 2026-05-05 03:49 | 41.42838 | -113.36713 | 34748 ft | 505 kts | 84° |
| 2026-05-05 03:49 | 41.43459 | -113.32176 | 34748 ft | 489 kts | 84° |
| 2026-05-05 03:49 | 41.44053 | -113.27804 | 34748 ft | 473 kts | 84° |
| 2026-05-05 03:50 | 41.45189 | -113.19227 | 34749 ft | 468 kts | 84° |
| 2026-05-05 03:50 | 41.46294 | -113.10861 | 34751 ft | 450 kts | 81° |
| 2026-05-05 03:51 | 41.47426 | -113.02735 | 34750 ft | 447 kts | 77° |
| 2026-05-05 03:51 | 41.48607 | -112.94480 | 34751 ft | 462 kts | 75° |
| 2026-05-05 03:52 | 41.49812 | -112.85899 | 34751 ft | 483 kts | 75° |
| 2026-05-05 03:52 | 41.50404 | -112.81409 | 34750 ft | 495 kts | 75° |
| 2026-05-05 03:52 | 41.50979 | -112.76846 | 34750 ft | 504 kts | 76° |
| 2026-05-05 03:53 | 41.52124 | -112.67618 | 34751 ft | 505 kts | 76° |
| 2026-05-05 03:53 | 41.53283 | -112.58348 | 34751 ft | 507 kts | 76° |
| 2026-05-05 03:54 | 41.54276 | -112.50655 | 34750 ft | 506 kts | 76° |
| 2026-05-05 03:54 | 41.55496 | -112.41415 | 34769 ft | 505 kts | 75° |
| 2026-05-05 03:55 | 41.56739 | -112.32223 | 34791 ft | 506 kts | 75° |
| 2026-05-05 03:55 | 41.57924 | -112.22929 | 34800 ft | 507 kts | 76° |
| 2026-05-05 03:56 | 41.59038 | -112.13559 | 34807 ft | 518 kts | 77° |
| 2026-05-05 03:56 | 41.60217 | -112.03980 | 34812 ft | 522 kts | 78° |
| 2026-05-05 03:57 | 41.61351 | -111.94405 | 34804 ft | 522 kts | 84° |
| 2026-05-05 03:57 | 41.62495 | -111.84821 | 34796 ft | 521 kts | 77° |
| 2026-05-05 03:58 | 41.63732 | -111.75304 | 34796 ft | 520 kts | 77° |
| 2026-05-05 03:58 | 41.64936 | -111.65741 | 34795 ft | 529 kts | 79° |
| 2026-05-05 03:59 | 41.66121 | -111.56019 | 34792 ft | 530 kts | 79° |
| 2026-05-05 03:59 | 41.67331 | -111.46293 | 34792 ft | 530 kts | 79° |
| 2026-05-05 04:00 | 41.68503 | -111.36598 | 34780 ft | 528 kts | 80° |
| 2026-05-05 04:00 | 41.69585 | -111.26860 | 34792 ft | 529 kts | 80° |
| 2026-05-05 04:01 | 41.70709 | -111.17099 | 34808 ft | 536 kts | 81° |
| 2026-05-05 04:01 | 41.71817 | -111.07221 | 34813 ft | 536 kts | 82° |
| 2026-05-05 04:02 | 41.72917 | -110.97400 | 34837 ft | 535 kts | 81° |
| 2026-05-05 04:02 | 41.74068 | -110.87549 | 34837 ft | 535 kts | 81° |
| 2026-05-05 04:03 | 41.75253 | -110.77722 | 34855 ft | 534 kts | 81° |
| 2026-05-05 04:03 | 41.76400 | -110.67957 | 34866 ft | 533 kts | 81° |
| 2026-05-05 04:04 | 41.77510 | -110.58112 | 34873 ft | 535 kts | 81° |